Search for airport 
image banner adimage banner ad
image banner ad

SJBW - Fazenda Barbacena Airport

Located in São Pedro Do Ivaí, Brazil

ICAO - SJBW, IATA -

Data provided by Airmate  

General information

Coordinates: S29°43'59" W51°12'35"
Elevation is 26 feet MSL.
Magnetic variation is -17° East
View others Airports in Rio Grande do Sul

Operational data

Open for public use
Current time UTC:
Current local time:
Weather at : SBCO - Canoas Airport ( 24 km )
METAR: SBCO 031600Z 26020G33KT 9999 VCSH BKN035 29/21 Q1003
TAF: TAF SBCO 030900Z 0312/0324 34006KT 8000 BKN007 TN21/0312Z TX25/0317Z PROB40 0312/0315 5000 RA BKN008 BECMG 0317/0319 19012KT 9999 NSW BKN015 RMK PEN
View NOTAMs / SUP AIP / TFR affecting this airport [VIEW]
Communications frequencies: [VIEW]

Runways:

RWY identifierQFULength (ft)Width (ft)SurfaceLDA (ft)
01262159GRASS
19262159GRASS

Airport contact information

Address: São Pedro Do Ivaí Brazil

Satellite view of SJBW